Pocatello, ID

9:55 AM MST on December 28, 2014 (GMT -0700)
Pocatello Regional | Change Station
CLOSE
Current Station
Airport
Location: Pocatello,
Elevation: 4478 ft
Nearby Weather Stations
Active Advisory: Winter Storm Warning

Elev 4478 ft 42.92 °N, 112.57 °W | Updated 1 hour ago

Snow
Snow
27 °F
Feels Like 14 °F
N
17
Wind Variable Wind from SW

Today
High -- | Low -- °F
--% Chance of Precip.
Yesterday
High -- | Low -- °F
Precip. -- in
8:00 AM 5:02 PM
Waxing Crescent, 49% visible
Pressure 30.07 in
Visibility 7.0 miles
Clouds Mostly Cloudy 1200 ft
Windchill 14 °F
Dew Point 24 °F
Humidity 89%
Rainfall 0.01 in
Snow Depth Not available.
UV 0 out of 12
Pollen .10 out of 12
Air Quality Not available.
Flu Activity Not available.
METAR KPIH 281553Z 22015KT 7SM -SN BKN012 M03/M04 A2998 RMK AO2 UPB34E36SNE17B36 SLP182 P0000 T10281044

More Conditions Fewer Conditions

Pressure 30.07 in
Visibility 7.0 miles
Clouds Mostly Cloudy 1200 ft
Windchill 14 °F
Dew Point 24 °F
Humidity 89%
Rainfall 0.01 in
Snow Depth Not available.
UV 0 out of 12
Pollen .10 out of 12
Air Quality Not available.
Flu Activity Not available.
METAR KPIH 281553Z 22015KT 7SM -SN BKN012 M03/M04 A2998 RMK AO2 UPB34E36SNE17B36 SLP182 P0000 T10281044

More Conditions Fewer Conditions

10-Day Weather Forecast

Almanac

Astronomy

Dec. 28, 2014 Rise Set
Actual Time
Civil Twilight
Nautical Twilight
Astronomical Twilight
Moon
Length of Visible Light
Length of Day
Tomorrow will be .
, % of the Moon is Illuminated

Today's Extremes

State Highs State Lows

Community

WunderPhotos

Upload Photos

1,781,344 photos uploaded!

WunderBlogs® & News

Nearby

Air Quality

  Air Quality AQ Index Pollutant
Not available.

Snow Depth

Station Depth Elevation

Earthquake Activity

City Distance Mag. Time & Date
Minimum magnitude displayed is 2.5.

Coastal Water Temperatures

Place Temperature

Nearby Weather Stations